Time;durP1;ratioP1;P1;durP2;ratioP2;P2;SDS_P1;SDS_P2;PMS_P1;PMS_P2;Temp;Humidity;BMP_temperature;BMP_pressure;BME280_temperature;BME280_humidity;BME280_pressure;Samples;Min_cycle;Max_cycle;Signal;HPM_P1;HPM_P2
2022/12/18 00:02:02;;;;;;;128.90;42.22;;;-2.90;99.90;;;;;;5047108;28;20133;-43
2022/12/18 00:04:29;;;;;;;131.82;42.55;;;-2.90;99.90;;;;;;5048746;28;20096;-48
2022/12/18 00:06:57;;;;;;;127.32;43.13;;;-2.90;99.90;;;;;;5048245;28;20084;-50
2022/12/18 00:09:24;;;;;;;130.27;42.38;;;-2.90;99.90;;;;;;5051415;28;20037;-47
2022/12/18 00:11:50;;;;;;;132.40;43.33;;;-2.90;99.90;;;;;;5049453;28;20049;-48
2022/12/18 00:14:17;;;;;;;139.30;45.90;;;-2.90;99.90;;;;;;5046479;28;20077;-46
2022/12/18 00:16:45;;;;;;;136.52;44.72;;;-2.90;99.90;;;;;;5053183;28;20085;-47
2022/12/18 00:19:11;;;;;;;140.27;45.30;;;-2.80;99.90;;;;;;5052405;28;20045;-50
2022/12/18 00:21:41;;;;;;;119.85;42.15;;;-2.80;99.90;;;;;;5048536;28;20098;-44
2022/12/18 00:24:09;;;;;;;110.10;37.30;;;-2.80;99.90;;;;;;5049128;28;20178;-47
2022/12/18 00:26:37;;;;;;;105.90;36.28;;;-2.80;99.90;;;;;;5048387;28;20469;-45
2022/12/18 00:29:05;;;;;;;112.93;39.40;;;-2.90;99.90;;;;;;5033041;28;20100;-46
2022/12/18 00:31:32;;;;;;;120.65;39.30;;;-2.90;99.90;;;;;;5050603;28;20051;-46
2022/12/18 00:33:58;;;;;;;107.72;40.50;;;-3.00;99.90;;;;;;5049605;28;20521;-44
2022/12/18 00:36:27;;;;;;;116.10;39.05;;;-3.00;99.90;;;;;;5048116;28;20143;-44
2022/12/18 00:38:54;;;;;;;111.18;37.72;;;-3.00;99.90;;;;;;5047693;28;20060;-46
2022/12/18 00:44:03;;;;;;;112.70;37.15;;;-3.20;99.90;;;;;;5032427;28;20057;-47
2022/12/18 00:46:30;;;;;;;110.90;38.78;;;-3.20;99.90;;;;;;5047493;28;20084;-49
2022/12/18 00:48:56;;;;;;;110.88;40.20;;;-3.20;99.90;;;;;;5048935;28;20088;-49
2022/12/18 00:51:23;;;;;;;118.82;40.50;;;-3.20;99.90;;;;;;5051816;28;20468;-49
2022/12/18 00:53:50;;;;;;;97.43;34.53;;;-3.20;99.90;;;;;;5049489;28;20053;-44
2022/12/18 00:56:17;;;;;;;115.47;39.15;;;-3.20;99.90;;;;;;5050032;28;20127;-45
2022/12/18 00:58:45;;;;;;;114.13;40.00;;;-3.20;99.90;;;;;;5050866;28;20069;-47
2022/12/18 01:01:12;;;;;;;109.57;38.65;;;-3.20;99.90;;;;;;5049724;28;20546;-43
2022/12/18 01:03:39;;;;;;;100.80;35.80;;;-3.10;99.90;;;;;;5051671;28;20052;-45
2022/12/18 01:06:07;;;;;;;114.95;40.95;;;-3.20;99.90;;;;;;5048565;28;20048;-42
2022/12/18 01:08:34;;;;;;;113.32;42.33;;;-3.20;99.90;;;;;;5056096;28;20532;-43
2022/12/18 01:11:01;;;;;;;119.15;40.47;;;-3.30;99.90;;;;;;5050401;28;20065;-46
2022/12/18 01:13:28;;;;;;;116.00;40.60;;;-3.30;99.90;;;;;;5049534;28;20081;-48
2022/12/18 01:15:56;;;;;;;112.53;40.38;;;-3.30;99.90;;;;;;5050667;28;20179;-49
2022/12/18 01:18:22;;;;;;;118.22;42.65;;;-3.30;99.90;;;;;;5050665;28;20084;-47
2022/12/18 01:20:49;;;;;;;113.35;42.20;;;-3.30;99.90;;;;;;5049929;28;20524;-46
2022/12/18 01:23:16;;;;;;;124.18;42.55;;;-3.30;99.90;;;;;;5049292;28;20056;-46
2022/12/18 01:25:43;;;;;;;117.00;41.88;;;-3.30;99.90;;;;;;5046880;28;20528;-45
2022/12/18 01:28:10;;;;;;;122.57;42.90;;;-3.30;99.90;;;;;;5048469;28;20049;-44
2022/12/18 01:30:37;;;;;;;128.52;43.78;;;-3.40;99.90;;;;;;5048362;28;20511;-44
2022/12/18 01:33:06;;;;;;;130.90;45.15;;;-3.40;99.90;;;;;;5050782;28;20085;-47
2022/12/18 01:38:32;;;;;;;130.40;44.55;;;-3.30;99.90;;;;;;5046888;28;20052;-45
2022/12/18 01:40:59;;;;;;;125.13;44.80;;;-3.30;99.90;;;;;;5047957;28;20045;-50
2022/12/18 01:43:44;;;;;;;142.60;46.85;;;-3.30;99.90;;;;;;5048408;28;20118;-48
2022/12/18 01:46:11;;;;;;;120.75;44.38;;;-3.30;99.90;;;;;;5048827;28;20084;-49
2022/12/18 01:48:39;;;;;;;136.93;47.13;;;-3.30;99.90;;;;;;5051051;28;20094;-47
2022/12/18 01:51:06;;;;;;;134.23;45.70;;;-3.20;99.90;;;;;;5050313;28;20096;-49
2022/12/18 01:53:33;;;;;;;135.82;46.33;;;-3.30;99.90;;;;;;5048519;28;20456;-45
2022/12/18 01:55:59;;;;;;;135.18;45.50;;;-3.30;99.90;;;;;;5046428;28;20090;-46
2022/12/18 01:58:31;;;;;;;130.55;44.75;;;-3.40;99.90;;;;;;5050174;28;20123;-44
2022/12/18 02:00:57;;;;;;;132.85;45.17;;;-3.40;99.90;;;;;;5047321;28;20069;-44
2022/12/18 02:03:24;;;;;;;122.10;46.03;;;-3.40;99.90;;;;;;5047730;28;20041;-49
2022/12/18 02:05:55;;;;;;;131.40;46.95;;;-3.40;99.90;;;;;;5051739;28;20489;-44
2022/12/18 02:08:22;;;;;;;123.90;45.90;;;-3.50;99.90;;;;;;5044973;28;20443;-47
2022/12/18 02:10:52;;;;;;;117.57;43.33;;;-3.50;99.90;;;;;;5047764;28;20103;-44
2022/12/18 02:13:21;;;;;;;133.88;47.88;;;-3.50;99.90;;;;;;5063768;28;20064;-45
2022/12/18 02:15:52;;;;;;;115.22;45.00;;;-3.50;99.90;;;;;;5050097;28;20401;-48
2022/12/18 02:18:20;;;;;;;121.85;43.38;;;-3.50;99.90;;;;;;5050868;28;20135;-47
2022/12/18 02:20:48;;;;;;;117.57;42.78;;;-3.50;99.90;;;;;;5049468;28;20128;-46
2022/12/18 02:23:24;;;;;;;116.38;43.40;;;-3.50;99.90;;;;;;5049416;28;20549;-44
2022/12/18 02:26:08;;;;;;;120.80;44.80;;;-3.60;99.90;;;;;;5048957;28;20076;-49
2022/12/18 02:28:36;;;;;;;104.97;42.38;;;-3.60;99.90;;;;;;5050434;28;20114;-47
2022/12/18 02:31:05;;;;;;;107.75;41.88;;;-3.70;99.90;;;;;;5052440;28;20513;-49
2022/12/18 02:33:31;;;;;;;116.68;42.95;;;-3.70;99.90;;;;;;5054097;28;20092;-50
2022/12/18 02:35:58;;;;;;;121.47;43.05;;;-3.70;99.90;;;;;;5052398;28;20441;-47
2022/12/18 02:38:25;;;;;;;119.47;42.08;;;-3.70;99.90;;;;;;5053471;28;20084;-45
2022/12/18 02:40:52;;;;;;;109.32;41.65;;;-3.70;99.90;;;;;;5052684;28;20080;-45
2022/12/18 02:43:20;;;;;;;114.53;42.05;;;-3.80;99.90;;;;;;5052565;28;20081;-46
2022/12/18 02:45:47;;;;;;;118.97;43.03;;;-3.80;99.90;;;;;;5052507;28;20060;-46
2022/12/18 02:48:14;;;;;;;126.10;44.58;;;-3.90;99.90;;;;;;5052369;28;20088;-49
2022/12/18 02:50:45;;;;;;;121.82;44.00;;;-3.90;99.90;;;;;;5052214;28;20394;-46
2022/12/18 02:53:15;;;;;;;120.60;43.55;;;-3.90;99.90;;;;;;5051289;28;20151;-47
2022/12/18 02:55:50;;;;;;;121.82;42.72;;;-3.90;99.90;;;;;;5053620;28;20090;-49
2022/12/18 02:58:18;;;;;;;114.72;41.47;;;-3.90;99.90;;;;;;5052025;28;20085;-49
2022/12/18 03:00:49;;;;;;;130.70;44.90;;;-4.00;99.90;;;;;;5050171;28;20139;-46
2022/12/18 03:03:19;;;;;;;118.03;42.17;;;-4.00;99.90;;;;;;5041250;28;20045;-44
2022/12/18 03:05:51;;;;;;;124.03;42.50;;;-4.00;99.90;;;;;;5053235;28;20091;-46
2022/12/18 03:08:19;;;;;;;119.95;42.38;;;-4.10;99.90;;;;;;5048355;28;20416;-44
2022/12/18 03:10:50;;;;;;;117.68;43.33;;;-4.10;99.90;;;;;;5052056;28;20064;-48
2022/12/18 03:13:21;;;;;;;117.43;42.05;;;-4.20;99.90;;;;;;5053120;28;20080;-46
2022/12/18 03:15:50;;;;;;;120.38;42.00;;;-4.20;99.90;;;;;;5048029;28;20045;-44
2022/12/18 03:18:18;;;;;;;122.88;41.58;;;-4.20;99.90;;;;;;5046537;28;20114;-45
2022/12/18 03:20:45;;;;;;;119.40;40.05;;;-4.30;99.90;;;;;;5050052;28;20134;-47
2022/12/18 03:23:13;;;;;;;111.40;40.40;;;-4.20;99.90;;;;;;5053145;28;20053;-50
2022/12/18 03:25:41;;;;;;;111.65;37.90;;;-4.20;99.90;;;;;;5052331;28;20110;-41
2022/12/18 03:28:09;;;;;;;114.65;40.17;;;-4.30;99.90;;;;;;5050863;28;20417;-48
2022/12/18 03:30:36;;;;;;;114.07;40.38;;;-4.30;99.90;;;;;;5052167;28;20041;-46
2022/12/18 03:33:06;;;;;;;113.55;39.15;;;-4.30;99.90;;;;;;5051456;28;20064;-45
2022/12/18 03:35:35;;;;;;;106.38;37.97;;;-4.30;99.90;;;;;;5052090;28;20084;-45
2022/12/18 03:38:01;;;;;;;107.78;36.55;;;-4.40;99.90;;;;;;5049920;28;20129;-46
2022/12/18 03:40:32;;;;;;;113.93;39.50;;;-4.40;99.90;;;;;;5050020;28;20080;-43
2022/12/18 03:43:00;;;;;;;113.93;36.65;;;-4.50;99.90;;;;;;5052293;28;20076;-45
2022/12/18 03:45:30;;;;;;;117.47;41.30;;;-4.50;99.90;;;;;;5053863;28;20084;-45
2022/12/18 03:48:01;;;;;;;115.97;39.60;;;-4.50;99.90;;;;;;5051067;28;20084;-44
2022/12/18 03:50:35;;;;;;;114.45;41.03;;;-4.50;99.90;;;;;;5051092;28;20055;-47
2022/12/18 03:53:07;;;;;;;119.07;40.55;;;-4.50;99.90;;;;;;5052538;28;20041;-45
2022/12/18 03:55:34;;;;;;;122.13;41.60;;;-4.50;99.90;;;;;;5052063;28;20044;-43
2022/12/18 03:58:01;;;;;;;106.53;37.47;;;-4.60;99.90;;;;;;5049776;28;20048;-46
2022/12/18 04:00:28;;;;;;;106.03;39.33;;;-4.60;99.90;;;;;;5050109;28;20076;-45
2022/12/18 04:02:56;;;;;;;111.57;39.28;;;-4.60;99.90;;;;;;5051150;28;20128;-49
2022/12/18 04:05:23;;;;;;;116.65;40.15;;;-4.60;99.90;;;;;;5050730;28;20053;-44
2022/12/18 04:07:51;;;;;;;111.97;39.25;;;-4.60;99.90;;;;;;5050275;28;20076;-48
2022/12/18 04:10:18;;;;;;;109.10;39.03;;;-4.70;99.90;;;;;;5049721;28;20545;-45
2022/12/18 04:12:45;;;;;;;94.78;35.08;;;-4.70;99.90;;;;;;5051792;28;20087;-41
2022/12/18 04:15:12;;;;;;;104.93;39.05;;;-4.70;99.90;;;;;;5051037;28;20063;-46
2022/12/18 04:17:39;;;;;;;108.35;38.30;;;-4.70;99.90;;;;;;5050818;28;20056;-45
2022/12/18 04:20:07;;;;;;;102.68;38.00;;;-4.70;99.90;;;;;;5052522;28;20471;-48
2022/12/18 04:22:33;;;;;;;104.85;37.67;;;-4.70;99.90;;;;;;5050223;28;20513;-46
2022/12/18 04:25:02;;;;;;;106.03;37.70;;;-4.80;99.90;;;;;;5049458;28;20139;-43
2022/12/18 04:27:29;;;;;;;94.43;34.28;;;-4.80;99.90;;;;;;5050454;28;20057;-46
2022/12/18 04:29:56;;;;;;;103.10;37.45;;;-4.80;99.90;;;;;;5052941;28;20455;-45
2022/12/18 04:32:23;;;;;;;98.20;36.65;;;-4.80;99.90;;;;;;5051320;28;20099;-50
2022/12/18 04:34:49;;;;;;;94.13;35.45;;;-4.80;99.90;;;;;;5052236;28;20080;-47
2022/12/18 04:37:16;;;;;;;98.25;36.47;;;-4.80;99.90;;;;;;5050165;28;20144;-45
2022/12/18 04:39:43;;;;;;;99.18;36.95;;;-4.80;99.90;;;;;;5050463;28;20056;-49
2022/12/18 04:42:11;;;;;;;92.85;34.25;;;-4.80;99.90;;;;;;5052120;28;20131;-45
2022/12/18 04:44:38;;;;;;;91.80;34.53;;;-4.80;99.90;;;;;;5050216;28;20076;-45
2022/12/18 04:47:05;;;;;;;88.53;33.85;;;-4.90;99.90;;;;;;5051695;28;20083;-44
2022/12/18 04:49:31;;;;;;;86.15;33.17;;;-4.90;99.90;;;;;;5052648;28;20106;-46
2022/12/18 04:51:58;;;;;;;84.82;32.75;;;-4.80;99.90;;;;;;5050254;28;20045;-49
2022/12/18 04:54:25;;;;;;;83.18;33.35;;;-4.80;99.90;;;;;;5049392;28;20837;-41
2022/12/18 04:56:52;;;;;;;76.07;29.58;;;-4.90;99.90;;;;;;5049259;28;20107;-44
2022/12/18 04:59:20;;;;;;;86.78;33.30;;;-4.90;99.90;;;;;;5049285;28;20451;-46
2022/12/18 05:01:47;;;;;;;73.43;29.98;;;-4.90;99.90;;;;;;5050088;28;20087;-45
2022/12/18 05:04:13;;;;;;;78.13;30.08;;;-4.90;99.90;;;;;;5050967;28;20061;-44
2022/12/18 05:06:40;;;;;;;75.15;30.35;;;-4.90;99.90;;;;;;5049490;28;20489;-46
2022/12/18 05:09:07;;;;;;;76.45;29.88;;;-4.90;99.90;;;;;;5048519;28;20053;-43
2022/12/18 05:11:37;;;;;;;78.82;30.27;;;-4.80;99.90;;;;;;5050039;28;20110;-42
2022/12/18 05:14:03;;;;;;;76.35;32.42;;;-4.90;99.90;;;;;;5048478;28;20148;-45
2022/12/18 05:16:32;;;;;;;72.30;30.73;;;-4.90;99.90;;;;;;5047463;28;20493;-45
2022/12/18 05:18:58;;;;;;;72.68;29.00;;;-4.90;99.90;;;;;;5048740;28;20049;-46
2022/12/18 05:21:25;;;;;;;73.45;30.75;;;-4.90;99.90;;;;;;5050591;28;20044;-44
2022/12/18 05:23:52;;;;;;;78.53;32.17;;;-4.90;99.90;;;;;;5049286;28;20056;-40
2022/12/18 05:26:19;;;;;;;73.70;29.75;;;-4.90;99.90;;;;;;5050334;28;20135;-44
2022/12/18 05:28:46;;;;;;;73.40;28.08;;;-4.90;99.90;;;;;;5049896;28;20400;-47
2022/12/18 05:31:13;;;;;;;79.35;29.77;;;-4.90;99.90;;;;;;5049634;28;20102;-44
2022/12/18 05:33:41;;;;;;;71.78;29.23;;;-4.60;99.90;;;;;;5051649;28;20083;-45
2022/12/18 05:36:09;;;;;;;64.70;27.67;;;-5.00;99.90;;;;;;5051594;28;20451;-46
2022/12/18 05:38:37;;;;;;;70.40;30.20;;;-5.00;99.90;;;;;;5049732;28;20107;-43
2022/12/18 05:41:04;;;;;;;66.90;27.92;;;-4.90;99.90;;;;;;5048605;28;20065;-45
2022/12/18 05:43:31;;;;;;;66.50;28.67;;;-5.00;99.90;;;;;;5047188;28;20131;-48
2022/12/18 05:45:57;;;;;;;69.72;27.85;;;-5.00;99.90;;;;;;5051857;28;20073;-46
2022/12/18 05:48:24;;;;;;;61.00;26.75;;;-5.00;99.90;;;;;;5048493;28;20080;-45
2022/12/18 05:50:52;;;;;;;70.07;27.65;;;-5.00;99.90;;;;;;5052140;28;20091;-44
2022/12/18 05:53:20;;;;;;;67.82;28.35;;;-5.00;99.90;;;;;;5049393;28;20096;-45
2022/12/18 05:55:47;;;;;;;68.80;27.63;;;-5.00;99.90;;;;;;5049632;28;20049;-43
2022/12/18 05:58:14;;;;;;;69.05;26.83;;;-5.00;99.90;;;;;;5049639;28;20504;-46
2022/12/18 06:00:42;;;;;;;68.15;27.08;;;-5.00;99.90;;;;;;5048686;28;20132;-47
2022/12/18 06:03:09;;;;;;;65.65;26.67;;;-5.10;99.90;;;;;;5051817;28;20132;-45
2022/12/18 06:05:37;;;;;;;65.00;27.42;;;-5.10;99.90;;;;;;5053955;28;20083;-44
2022/12/18 06:08:05;;;;;;;60.40;25.95;;;-5.10;99.90;;;;;;5052542;28;20456;-42
2022/12/18 06:10:32;;;;;;;58.75;25.63;;;-5.10;99.90;;;;;;5051651;28;20052;-44
2022/12/18 06:12:59;;;;;;;61.80;25.58;;;-5.10;99.90;;;;;;5054657;28;20152;-45
2022/12/18 06:15:26;;;;;;;65.35;26.17;;;-5.20;99.90;;;;;;5051917;28;20099;-46
2022/12/18 06:17:52;;;;;;;58.58;25.80;;;-5.10;99.90;;;;;;5053535;28;20080;-45
2022/12/18 06:20:19;;;;;;;63.75;27.58;;;-5.20;99.90;;;;;;5052243;28;20437;-46
2022/12/18 06:22:46;;;;;;;62.38;27.05;;;-5.20;99.90;;;;;;5052621;28;20087;-42
2022/12/18 06:25:14;;;;;;;63.58;26.20;;;-5.20;99.90;;;;;;5053607;28;20128;-44
2022/12/18 06:27:41;;;;;;;63.80;26.50;;;-5.20;99.90;;;;;;5054772;28;20048;-41
2022/12/18 06:30:09;;;;;;;61.30;26.45;;;-5.20;99.90;;;;;;5054105;28;20108;-44
2022/12/18 06:32:36;;;;;;;56.92;24.80;;;-5.20;99.90;;;;;;5051549;28;20084;-46
2022/12/18 06:35:03;;;;;;;57.53;26.52;;;-5.20;99.90;;;;;;5053602;28;20787;-46
2022/12/18 06:37:31;;;;;;;63.70;25.77;;;-5.20;99.90;;;;;;5051521;28;20051;-44
2022/12/18 06:39:58;;;;;;;59.97;25.60;;;-5.20;99.90;;;;;;5052356;28;20080;-38
2022/12/18 06:42:26;;;;;;;56.42;25.20;;;-5.30;99.90;;;;;;5052723;28;20095;-45
2022/12/18 06:44:53;;;;;;;59.15;26.73;;;-5.20;99.90;;;;;;5053522;28;20053;-42
2022/12/18 06:47:20;;;;;;;60.33;25.85;;;-5.20;99.90;;;;;;5051359;28;20099;-47
2022/12/18 06:49:47;;;;;;;58.40;26.33;;;-5.20;99.90;;;;;;5053346;28;20090;-44
2022/12/18 06:52:22;;;;;;;58.40;26.25;;;-5.20;99.90;;;;;;5053395;28;20045;-44
2022/12/18 06:54:49;;;;;;;57.17;24.80;;;-5.30;99.90;;;;;;5053747;28;20053;-46
2022/12/18 06:57:16;;;;;;;57.05;24.70;;;-5.30;99.90;;;;;;5052265;28;20534;-45
2022/12/18 06:59:44;;;;;;;51.10;22.88;;;-4.90;99.90;;;;;;5053124;28;20048;-46
2022/12/18 07:02:12;;;;;;;56.88;23.90;;;-5.30;99.90;;;;;;5049204;28;20393;-44
2022/12/18 07:04:39;;;;;;;56.33;24.20;;;-5.20;99.90;;;;;;5048058;28;20704;-43
2022/12/18 07:07:06;;;;;;;54.42;24.02;;;-5.30;99.90;;;;;;5051155;28;20049;-44
2022/12/18 07:09:32;;;;;;;51.10;24.25;;;-5.30;99.90;;;;;;5052072;28;20398;-44
2022/12/18 07:11:59;;;;;;;53.80;23.77;;;-5.30;99.90;;;;;;5052489;28;20114;-45
2022/12/18 07:14:26;;;;;;;51.72;22.85;;;-5.30;99.90;;;;;;5049470;28;20089;-43
2022/12/18 07:16:54;;;;;;;54.33;24.25;;;-5.30;99.90;;;;;;5052577;28;20056;-47
2022/12/18 07:19:24;;;;;;;63.17;25.73;;;-5.30;99.90;;;;;;5053168;28;20465;-47
2022/12/18 07:21:51;;;;;;;63.97;26.95;;;-5.40;99.90;;;;;;5051344;28;20493;-45
2022/12/18 07:24:18;;;;;;;58.50;25.85;;;-5.40;99.90;;;;;;5050023;28;20492;-48
2022/12/18 07:26:46;;;;;;;61.05;26.35;;;-5.50;99.90;;;;;;5048363;28;20052;-47
2022/12/18 07:29:13;;;;;;;58.58;25.17;;;-5.50;99.90;;;;;;5048437;28;20053;-43
2022/12/18 07:31:40;;;;;;;58.00;25.17;;;-5.50;99.90;;;;;;5050013;28;20053;-46
2022/12/18 07:34:12;;;;;;;57.53;26.42;;;-5.20;99.90;;;;;;5053205;28;20143;-45
2022/12/18 07:36:39;;;;;;;;;;;-5.60;99.90;;;;;;5051804;28;20053;-43
2022/12/18 07:39:05;;;;;;;59.67;25.08;;;-5.60;99.90;;;;;;5046795;28;19924;-35
2022/12/18 07:41:32;;;;;;;55.72;25.10;;;-5.70;99.90;;;;;;5050750;28;20102;-40
2022/12/18 07:43:59;;;;;;;59.15;24.02;;;-5.70;99.90;;;;;;5048881;28;20069;-47
2022/12/18 07:46:26;;;;;;;58.47;25.45;;;-5.70;99.90;;;;;;5048873;28;20076;-47
2022/12/18 07:48:52;;;;;;;52.58;25.13;;;-5.70;99.90;;;;;;5047968;28;20560;-43
2022/12/18 07:51:21;;;;;;;57.83;24.58;;;-5.80;99.90;;;;;;5049675;28;20064;-43
2022/12/18 07:53:47;;;;;;;56.08;26.10;;;-5.70;99.90;;;;;;5051333;28;20045;-46
2022/12/18 07:56:14;;;;;;;60.13;24.50;;;-5.70;99.90;;;;;;5048997;28;20072;-43
2022/12/18 07:58:41;;;;;;;57.30;25.63;;;-5.70;99.90;;;;;;5048086;28;20072;-42
2022/12/18 08:01:09;;;;;;;56.40;25.33;;;-5.80;99.90;;;;;;5048048;28;20053;-44
2022/12/18 08:03:36;;;;;;;55.55;24.48;;;-5.70;99.90;;;;;;5047744;28;20470;-42
2022/12/18 08:06:03;;;;;;;58.00;26.85;;;-5.80;99.90;;;;;;5050806;28;20053;-42
2022/12/18 08:08:32;;;;;;;54.75;25.80;;;-5.80;99.90;;;;;;5049968;28;20453;-42
2022/12/18 08:10:58;;;;;;;55.22;24.15;;;-5.70;99.90;;;;;;5051679;28;20049;-43
2022/12/18 08:13:25;;;;;;;51.20;22.90;;;-5.80;99.90;;;;;;5049569;28;20064;-44
2022/12/18 08:15:58;;;;;;;49.35;23.95;;;-5.80;99.90;;;;;;5052687;28;20059;-44
2022/12/18 08:18:25;;;;;;;56.78;23.58;;;-5.80;99.90;;;;;;5049728;28;20045;-44
2022/12/18 08:20:52;;;;;;;51.03;24.45;;;-5.80;99.90;;;;;;5050958;28;20076;-39
2022/12/18 08:23:19;;;;;;;53.85;22.80;;;-5.80;99.90;;;;;;5050126;28;20076;-43
2022/12/18 08:25:47;;;;;;;50.92;24.48;;;-5.70;99.90;;;;;;5048450;28;20099;-42
2022/12/18 08:28:16;;;;;;;50.40;24.10;;;-5.70;99.90;;;;;;5050427;28;20053;-44
2022/12/18 08:30:43;;;;;;;48.38;22.42;;;-5.60;99.90;;;;;;5050631;28;20049;-46
2022/12/18 08:33:10;;;;;;;48.45;23.58;;;-5.70;99.90;;;;;;5049819;28;20465;-41
2022/12/18 08:35:37;;;;;;;49.03;23.33;;;-5.60;99.90;;;;;;5046196;28;20053;-43
2022/12/18 08:38:04;;;;;;;50.58;22.58;;;-5.60;99.90;;;;;;5043318;28;20063;-42
2022/12/18 08:40:31;;;;;;;51.92;22.75;;;-5.60;99.90;;;;;;5045610;28;20139;-42
2022/12/18 08:45:43;;;;;;;45.85;22.33;;;-5.50;99.90;;;;;;5049707;28;20048;-44
2022/12/18 08:48:10;;;;;;;43.13;21.88;;;-5.50;99.90;;;;;;5049493;28;20622;-43
2022/12/18 08:50:37;;;;;;;43.75;21.48;;;-5.50;99.90;;;;;;5050378;28;20060;-45
2022/12/18 08:53:04;;;;;;;41.13;20.95;;;-5.40;99.90;;;;;;5048010;28;20072;-44
2022/12/18 08:55:30;;;;;;;44.80;21.70;;;-5.30;99.90;;;;;;5047255;28;20124;-43
2022/12/18 08:57:58;;;;;;;41.33;20.88;;;-5.30;99.90;;;;;;5049723;28;20489;-45
2022/12/18 09:00:25;;;;;;;42.10;20.73;;;-5.20;99.90;;;;;;5050706;28;20049;-41
2022/12/18 09:02:52;;;;;;;44.40;22.00;;;-5.20;99.90;;;;;;5050095;28;20049;-42
2022/12/18 09:05:19;;;;;;;40.88;21.55;;;-5.20;99.90;;;;;;5049676;28;20076;-45
2022/12/18 09:07:46;;;;;;;39.33;20.88;;;-5.10;99.90;;;;;;5049357;28;20114;-45
2022/12/18 09:10:13;;;;;;;40.90;20.13;;;-5.00;99.90;;;;;;5051142;28;20052;-42
2022/12/18 09:12:39;;;;;;;43.45;20.45;;;-5.00;99.90;;;;;;5050885;28;20045;-48
2022/12/18 09:15:08;;;;;;;42.63;19.80;;;-4.90;99.90;;;;;;5049842;28;20061;-44
2022/12/18 09:17:35;;;;;;;41.25;19.52;;;-4.80;99.90;;;;;;5049897;28;20393;-45
2022/12/18 09:20:02;;;;;;;40.92;18.58;;;-4.80;99.90;;;;;;5048994;28;20084;-43
2022/12/18 09:22:29;;;;;;;36.85;19.42;;;-4.70;99.90;;;;;;5049858;28;20485;-44
2022/12/18 09:24:55;;;;;;;35.92;19.13;;;-4.70;99.90;;;;;;5050663;28;20080;-45
2022/12/18 09:27:22;;;;;;;40.10;18.67;;;-4.60;99.90;;;;;;5043617;28;20077;-42
2022/12/18 09:29:49;;;;;;;36.83;17.90;;;-4.50;99.90;;;;;;5048556;28;20098;-45
2022/12/18 09:32:17;;;;;;;34.97;18.13;;;-4.50;99.90;;;;;;5050776;28;20052;-44
2022/12/18 09:34:44;;;;;;;29.85;16.25;;;-4.40;99.90;;;;;;5052322;28;20052;-43
2022/12/18 09:37:11;;;;;;;32.75;17.08;;;-4.30;99.90;;;;;;5052498;28;20061;-43
2022/12/18 09:39:38;;;;;;;31.58;16.38;;;-4.20;99.90;;;;;;5053863;28;20103;-46
2022/12/18 09:42:06;;;;;;;32.38;16.70;;;-4.20;99.90;;;;;;5051305;28;20045;-45
2022/12/18 09:44:34;;;;;;;32.55;15.57;;;-4.00;99.90;;;;;;5054265;28;20102;-43
2022/12/18 09:47:10;;;;;;;31.60;16.08;;;-4.00;99.90;;;;;;5054107;28;20060;-45
2022/12/18 09:49:41;;;;;;;31.83;15.75;;;-3.90;99.90;;;;;;5036098;28;20103;-42
2022/12/18 09:52:10;;;;;;;29.13;15.52;;;-3.70;99.90;;;;;;5053745;28;20085;-46
2022/12/18 09:54:45;;;;;;;32.30;16.60;;;-3.70;99.90;;;;;;5054152;28;20072;-40
2022/12/18 09:57:14;;;;;;;29.50;15.45;;;-3.60;99.90;;;;;;5047006;28;20429;-44
2022/12/18 09:59:41;;;;;;;29.90;15.02;;;-3.50;99.90;;;;;;5052096;28;20186;-47
2022/12/18 10:02:15;;;;;;;29.65;15.98;;;-3.40;99.90;;;;;;5053052;28;20080;-43
2022/12/18 10:04:44;;;;;;;27.90;14.50;;;-3.40;99.90;;;;;;5055788;28;20048;-45
2022/12/18 10:07:14;;;;;;;26.08;14.30;;;-3.30;99.90;;;;;;5054255;28;20110;-45
2022/12/18 10:09:43;;;;;;;27.30;14.80;;;-3.20;99.90;;;;;;5041783;28;20048;-44
2022/12/18 10:12:13;;;;;;;28.15;14.38;;;-3.20;99.90;;;;;;5053325;28;20080;-46
2022/12/18 10:14:44;;;;;;;24.33;13.48;;;-3.00;99.90;;;;;;5053978;28;20099;-46
2022/12/18 10:17:17;;;;;;;27.70;13.80;;;-3.00;99.90;;;;;;5054031;28;20083;-44
2022/12/18 10:19:49;;;;;;;23.90;12.52;;;-3.00;99.90;;;;;;5053817;28;20048;-47
2022/12/18 10:22:22;;;;;;;25.27;13.70;;;-2.90;99.90;;;;;;5052580;28;20067;-44
2022/12/18 10:24:52;;;;;;;24.75;13.82;;;-3.00;99.90;;;;;;5053911;28;20084;-45
2022/12/18 10:27:19;;;;;;;25.65;13.18;;;-3.00;99.90;;;;;;5053869;28;20045;-45
2022/12/18 10:29:46;;;;;;;22.95;13.52;;;-3.00;99.90;;;;;;5050627;28;20111;-44
2022/12/18 10:32:15;;;;;;;23.00;12.77;;;-2.90;99.90;;;;;;5041890;28;20135;-47
2022/12/18 10:34:42;;;;;;;26.10;13.25;;;-2.90;99.90;;;;;;5054313;28;20107;-44
2022/12/18 10:37:13;;;;;;;22.30;11.45;;;-2.90;99.90;;;;;;5054232;28;20099;-45
2022/12/18 10:39:40;;;;;;;24.08;11.82;;;-2.90;99.90;;;;;;5051696;28;20489;-43
2022/12/18 10:42:11;;;;;;;24.23;12.55;;;-2.90;99.90;;;;;;5048213;28;20053;-44
2022/12/18 10:44:38;;;;;;;28.17;12.13;;;-2.70;99.90;;;;;;5048783;28;20041;-45
2022/12/18 10:47:05;;;;;;;22.63;11.48;;;-2.80;99.90;;;;;;5052100;28;20775;-44
2022/12/18 10:49:33;;;;;;;21.52;11.38;;;-2.70;99.90;;;;;;5050459;28;20056;-47
2022/12/18 10:52:19;;;;;;;21.58;11.18;;;-2.70;99.90;;;;;;5048305;28;20085;-45
2022/12/18 10:54:50;;;;;;;19.77;11.15;;;-2.70;99.90;;;;;;5045895;28;20130;-43
2022/12/18 10:57:19;;;;;;;21.17;11.80;;;-2.60;99.90;;;;;;5041267;28;20339;-42
2022/12/18 10:59:56;;;;;;;16.88;10.52;;;-2.60;99.90;;;;;;5046562;28;20477;-42
2022/12/18 11:02:34;;;;;;;17.23;10.05;;;-2.60;99.90;;;;;;5046239;28;20136;-45
2022/12/18 11:05:01;;;;;;;18.40;9.73;;;-2.50;99.90;;;;;;5051456;28;20080;-41
2022/12/18 11:07:36;;;;;;;19.80;10.73;;;-2.50;99.90;;;;;;5048723;28;20057;-43
2022/12/18 11:10:16;;;;;;;28.02;15.43;;;-2.40;99.90;;;;;;5049467;28;20055;-44
2022/12/18 11:12:42;;;;;;;20.58;11.68;;;-2.30;99.90;;;;;;5050748;28;20085;-44
2022/12/18 11:15:16;;;;;;;40.42;23.45;;;-2.30;99.90;;;;;;5048910;28;20073;-46
2022/12/18 11:17:43;;;;;;;26.75;15.93;;;-2.30;99.90;;;;;;5049126;28;20057;-43
2022/12/18 11:20:31;;;;;;;16.45;10.98;;;-2.00;99.90;;;;;;5046677;28;20084;-46
2022/12/18 11:23:00;;;;;;;15.52;9.38;;;-2.20;99.90;;;;;;5045885;28;20056;-47
2022/12/18 11:25:30;;;;;;;14.15;8.88;;;-2.20;99.90;;;;;;5048220;28;20080;-45
2022/12/18 11:27:58;;;;;;;13.93;8.63;;;-2.10;99.90;;;;;;5045815;28;20410;-45
2022/12/18 11:30:27;;;;;;;16.67;9.18;;;-2.00;99.90;;;;;;5052424;28;20049;-46
2022/12/18 11:32:55;;;;;;;19.85;8.10;;;-2.00;99.90;;;;;;5044098;28;20099;-44
2022/12/18 11:35:24;;;;;;;14.98;8.13;;;-2.00;99.90;;;;;;5050634;28;20238;-45
2022/12/18 11:37:57;;;;;;;13.00;7.88;;;-1.90;99.90;;;;;;5049216;28;20053;-47
2022/12/18 11:40:28;;;;;;;15.18;6.70;;;-1.90;99.90;;;;;;5051140;28;20067;-46
2022/12/18 11:42:57;;;;;;;12.32;7.13;;;-1.90;99.90;;;;;;5051303;28;20547;-48
2022/12/18 11:45:31;;;;;;;12.73;7.95;;;-1.80;99.90;;;;;;5049212;28;20040;-45
2022/12/18 11:48:01;;;;;;;12.52;5.93;;;-1.80;99.90;;;;;;5050354;28;20481;-45
2022/12/18 11:50:31;;;;;;;12.23;7.47;;;-1.80;99.90;;;;;;5050550;28;20092;-48
2022/12/18 11:52:57;;;;;;;13.85;7.20;;;-1.70;99.90;;;;;;5048288;28;20521;-47
2022/12/18 11:55:30;;;;;;;15.63;7.78;;;-1.70;99.90;;;;;;5050098;28;20045;-47
2022/12/18 11:57:59;;;;;;;13.43;8.23;;;-1.60;99.90;;;;;;5048982;28;20427;-47
2022/12/18 12:00:26;;;;;;;11.13;6.25;;;-1.60;99.90;;;;;;5049596;28;20092;-46
2022/12/18 12:03:08;;;;;;;11.27;6.22;;;-1.60;99.90;;;;;;5041202;28;20052;-41
2022/12/18 12:05:44;;;;;;;10.73;7.20;;;-1.50;99.90;;;;;;5042756;28;20048;-45
2022/12/18 12:08:13;;;;;;;11.15;5.93;;;-1.50;99.90;;;;;;5045838;28;20060;-44
2022/12/18 12:10:48;;;;;;;11.80;6.75;;;-1.50;99.90;;;;;;5051938;28;20128;-45
2022/12/18 12:13:25;;;;;;;12.00;7.32;;;-1.40;99.90;;;;;;5050605;28;20063;-42
2022/12/18 12:16:00;;;;;;;11.57;6.50;;;-1.40;99.90;;;;;;5050665;28;20056;-45
2022/12/18 12:18:31;;;;;;;11.60;6.40;;;-1.40;99.90;;;;;;5051207;28;20056;-45
2022/12/18 12:21:02;;;;;;;14.13;6.97;;;-1.30;99.90;;;;;;5051731;28;20126;-46
2022/12/18 12:23:34;;;;;;;11.60;7.28;;;-1.30;99.90;;;;;;5050498;28;20049;-46
2022/12/18 12:26:04;;;;;;;12.30;7.30;;;-1.30;99.90;;;;;;5052984;28;20103;-44
2022/12/18 12:28:53;;;;;;;11.57;7.28;;;-1.30;99.90;;;;;;5049775;28;20053;-48
2022/12/18 12:31:25;;;;;;;11.07;7.43;;;-1.20;99.90;;;;;;5047024;28;20139;-45
2022/12/18 12:33:53;;;;;;;13.07;7.07;;;-1.30;99.90;;;;;;5050244;28;20492;-46
2022/12/18 12:36:23;;;;;;;13.77;7.70;;;-1.20;99.90;;;;;;5050936;28;20103;-47
2022/12/18 12:38:51;;;;;;;13.57;7.57;;;-1.20;99.90;;;;;;5051100;28;20073;-45
2022/12/18 12:44:07;;;;;;;11.23;7.13;;;-1.10;99.90;;;;;;5047518;28;20060;-45